createdAt,value
2022-08-30T00:02:25.218Z,6.05
2022-08-30T00:04:54.592Z,4.97
2022-08-30T00:07:23.470Z,4.50
2022-08-30T00:09:51.355Z,4.68
2022-08-30T00:12:21.375Z,4.00
2022-08-30T00:14:49.364Z,4.68
2022-08-30T00:17:17.200Z,5.62
2022-08-30T00:19:45.800Z,5.78
2022-08-30T00:22:14.333Z,4.97
2022-08-30T00:24:42.224Z,5.12
2022-08-30T00:27:10.391Z,5.05
2022-08-30T00:29:38.260Z,5.05
2022-08-30T00:32:06.225Z,5.50
2022-08-30T00:34:34.923Z,5.15
2022-08-30T00:37:03.097Z,5.00
2022-08-30T00:39:30.889Z,5.20
2022-08-30T00:41:59.032Z,6.20
2022-08-30T00:44:26.977Z,5.93
2022-08-30T00:46:54.734Z,4.28
2022-08-30T00:49:23.221Z,4.07
2022-08-30T00:51:51.310Z,5.90
2022-08-30T00:54:22.324Z,4.35
2022-08-30T00:56:55.859Z,5.60
2022-08-30T00:59:24.824Z,5.10
2022-08-30T01:01:52.929Z,6.47
2022-08-30T01:04:24.634Z,5.00
2022-08-30T01:06:53.414Z,5.22
2022-08-30T01:09:22.126Z,5.53
2022-08-30T01:11:50.161Z,4.47
2022-08-30T01:14:18.386Z,5.97
2022-08-30T01:16:46.656Z,5.18
2022-08-30T01:19:36.047Z,4.50
2022-08-30T01:22:17.822Z,4.30
2022-08-30T01:24:48.014Z,5.78
2022-08-30T01:27:18.394Z,4.28
2022-08-30T01:29:46.841Z,4.80
2022-08-30T01:32:21.309Z,5.10
2022-08-30T01:34:50.692Z,3.87
2022-08-30T01:37:24.860Z,4.78
2022-08-30T01:39:53.271Z,5.60
2022-08-30T01:42:21.554Z,4.75
2022-08-30T01:44:49.886Z,5.93
2022-08-30T01:47:19.681Z,5.95
2022-08-30T01:49:47.985Z,4.53
2022-08-30T01:52:17.780Z,4.82
2022-08-30T01:54:47.191Z,6.22
2022-08-30T01:57:18.602Z,2.80
2022-08-30T01:59:48.126Z,3.80
2022-08-30T02:02:21.312Z,3.83
2022-08-30T02:04:52.052Z,3.92
2022-08-30T02:07:23.835Z,3.85
2022-08-30T02:09:53.608Z,4.87
2022-08-30T02:12:21.525Z,4.95
2022-08-30T02:14:49.479Z,5.57
2022-08-30T02:17:19.722Z,5.10
2022-08-30T02:19:50.288Z,3.95
2022-08-30T02:22:18.975Z,5.20
2022-08-30T02:24:46.972Z,4.93
2022-08-30T02:27:14.946Z,6.15
2022-08-30T02:29:43.254Z,5.10
2022-08-30T02:32:11.065Z,4.45
2022-08-30T02:34:38.870Z,5.65
2022-08-30T02:37:07.150Z,4.50
2022-08-30T02:39:35.065Z,3.72
2022-08-30T02:42:03.596Z,5.10
2022-08-30T02:44:31.807Z,3.85
2022-08-30T02:46:59.626Z,4.97
2022-08-30T02:49:33.522Z,5.90
2022-08-30T02:52:05.218Z,5.82
2022-08-30T02:54:33.586Z,6.00
2022-08-30T02:57:05.330Z,5.82
2022-08-30T02:59:34.280Z,5.25
2022-08-30T03:02:02.084Z,4.95
2022-08-30T03:04:30.249Z,4.75
2022-08-30T03:06:59.324Z,3.95
2022-08-30T03:09:27.222Z,5.53
2022-08-30T03:11:55.017Z,5.15
2022-08-30T03:14:23.395Z,5.87
2022-08-30T03:16:51.805Z,5.60
2022-08-30T03:19:20.035Z,5.70
2022-08-30T03:21:48.395Z,6.15
2022-08-30T03:24:16.179Z,6.03
2022-08-30T03:26:46.436Z,5.85
2022-08-30T03:29:15.143Z,4.12
2022-08-30T03:31:52.556Z,4.62
2022-08-30T03:34:22.144Z,5.85
2022-08-30T03:36:53.017Z,4.80
2022-08-30T03:39:22.984Z,4.90
2022-08-30T03:41:52.050Z,3.53
2022-08-30T03:44:20.814Z,5.50
2022-08-30T03:46:50.370Z,4.22
2022-08-30T03:49:19.716Z,4.60
2022-08-30T03:51:48.673Z,4.43
2022-08-30T03:54:17.459Z,4.72
2022-08-30T03:56:45.266Z,5.95
2022-08-30T03:59:13.215Z,4.87
2022-08-30T04:01:42.380Z,4.00
2022-08-30T04:04:10.611Z,5.20
2022-08-30T04:06:38.576Z,3.40
2022-08-30T04:09:06.815Z,4.32
2022-08-30T04:11:35.025Z,4.50
2022-08-30T04:14:02.730Z,4.62
2022-08-30T04:16:30.554Z,5.03
2022-08-30T04:18:58.735Z,5.05
2022-08-30T04:21:27.320Z,4.32
2022-08-30T04:23:55.139Z,5.18
2022-08-30T04:26:23.485Z,5.10
2022-08-30T04:28:57.863Z,6.53
2022-08-30T04:31:27.706Z,3.60
2022-08-30T04:36:42.142Z,5.80
2022-08-30T04:39:17.777Z,4.97
2022-08-30T04:41:48.787Z,5.32
2022-08-30T04:44:19.486Z,5.50
2022-08-30T04:46:48.528Z,6.90
2022-08-30T04:49:16.328Z,5.03
2022-08-30T04:51:44.143Z,4.55
2022-08-30T04:54:12.628Z,6.00
2022-08-30T04:56:40.641Z,5.00
2022-08-30T04:59:08.463Z,3.83
2022-08-30T05:01:44.694Z,5.43
2022-08-30T05:04:14.039Z,7.53
2022-08-30T05:06:42.531Z,5.85
2022-08-30T05:09:10.454Z,5.85
2022-08-30T05:11:39.187Z,6.37
2022-08-30T05:14:07.534Z,5.22
2022-08-30T05:16:35.894Z,5.40
2022-08-30T05:19:04.044Z,6.30
2022-08-30T05:21:32.274Z,7.82
2022-08-30T05:24:01.331Z,6.53
2022-08-30T05:26:32.721Z,7.82
2022-08-30T05:29:01.462Z,5.87
2022-08-30T05:31:32.764Z,5.45
2022-08-30T05:34:01.629Z,7.57
2022-08-30T05:36:32.556Z,7.25
2022-08-30T05:39:01.338Z,4.95
2022-08-30T05:41:29.579Z,7.50
2022-08-30T05:46:46.588Z,7.82
2022-08-30T05:49:14.602Z,8.05
2022-08-30T05:51:43.215Z,6.10
2022-08-30T05:54:13.644Z,7.43
2022-08-30T05:56:43.040Z,4.97
2022-08-30T05:59:12.868Z,5.10
2022-08-30T06:01:46.920Z,4.72
2022-08-30T06:04:15.778Z,6.32
2022-08-30T06:06:44.808Z,6.53
2022-08-30T06:09:14.174Z,4.93
2022-08-30T06:11:43.233Z,7.05
2022-08-30T06:14:11.717Z,5.78
2022-08-30T06:16:41.237Z,7.32
2022-08-30T06:19:11.288Z,5.37
2022-08-30T06:21:40.789Z,5.65
2022-08-30T06:24:11.496Z,7.07
2022-08-30T06:26:45.443Z,7.30
2022-08-30T06:29:16.275Z,5.95
2022-08-30T06:31:44.812Z,7.35
2022-08-30T06:34:13.032Z,4.82
2022-08-30T06:36:40.891Z,6.93
2022-08-30T06:39:11.729Z,8.93
2022-08-30T06:41:41.567Z,6.35
2022-08-30T06:44:12.422Z,6.05
2022-08-30T06:46:42.767Z,6.53
2022-08-30T06:49:11.099Z,7.65
2022-08-30T06:51:40.238Z,7.15
2022-08-30T06:54:11.958Z,7.25
2022-08-30T06:56:55.209Z,6.93
2022-08-30T06:59:27.306Z,7.57
2022-08-30T07:01:56.763Z,6.62
2022-08-30T07:04:25.590Z,6.85
2022-08-30T07:06:53.591Z,7.53
2022-08-30T07:09:23.044Z,7.12
2022-08-30T07:11:52.268Z,8.18
2022-08-30T07:14:21.138Z,6.75
2022-08-30T07:16:51.170Z,7.60
2022-08-30T07:19:21.522Z,5.50
2022-08-30T07:21:52.277Z,6.00
2022-08-30T07:24:21.124Z,6.70
2022-08-30T07:26:52.393Z,7.20
2022-08-30T07:29:21.604Z,5.87
2022-08-30T07:31:53.100Z,8.48
2022-08-30T07:34:22.404Z,7.70
2022-08-30T07:36:52.680Z,8.50
2022-08-30T07:39:20.564Z,8.30
2022-08-30T07:41:49.119Z,6.07
2022-08-30T07:44:18.069Z,7.65
2022-08-30T07:46:46.204Z,8.10
2022-08-30T07:49:14.246Z,8.70
2022-08-30T07:51:42.867Z,6.95
2022-08-30T07:54:10.781Z,8.30
2022-08-30T07:56:38.738Z,8.93
2022-08-30T07:59:06.997Z,8.48
2022-08-30T08:01:34.998Z,6.53
2022-08-30T08:04:03.623Z,9.25
2022-08-30T08:06:34.927Z,8.30
2022-08-30T08:09:03.644Z,6.90
2022-08-30T08:11:33.928Z,6.37
2022-08-30T08:14:03.434Z,8.73
2022-08-30T08:16:35.090Z,8.38
2022-08-30T08:19:04.912Z,7.07
2022-08-30T08:21:33.144Z,4.93
2022-08-30T08:24:01.004Z,8.13
2022-08-30T08:26:28.967Z,8.13
2022-08-30T08:28:57.928Z,8.48
2022-08-30T08:31:33.397Z,8.55
2022-08-30T08:36:54.392Z,8.50
2022-08-30T08:39:22.568Z,9.20
2022-08-30T08:42:27.628Z,8.80
2022-08-30T08:45:11.516Z,9.98
2022-08-30T08:47:45.376Z,7.78
2022-08-30T08:50:20.853Z,8.38
2022-08-30T08:53:36.055Z,9.50
2022-08-30T08:56:15.907Z,10.65
2022-08-30T08:58:47.441Z,8.93
2022-08-30T09:01:19.528Z,12.57
2022-08-30T09:03:48.213Z,10.77
2022-08-30T09:06:34.412Z,12.40
2022-08-30T09:09:02.196Z,7.80
2022-08-30T09:11:34.364Z,6.47
2022-08-30T09:14:02.782Z,14.32
2022-08-30T09:16:54.983Z,12.63
2022-08-30T09:19:56.917Z,13.30
2022-08-30T09:22:54.819Z,11.05
2022-08-30T09:25:30.710Z,10.38
2022-08-30T09:28:23.058Z,11.98
2022-08-30T09:31:01.685Z,11.35
2022-08-30T09:33:30.400Z,13.48
2022-08-30T09:36:14.082Z,12.10
2022-08-30T09:38:42.638Z,10.90
2022-08-30T09:41:34.759Z,10.85
2022-08-30T09:44:14.577Z,10.65
2022-08-30T09:46:51.957Z,10.63
2022-08-30T09:49:35.838Z,10.32
2022-08-30T09:52:22.248Z,9.90
2022-08-30T09:55:04.130Z,11.73
2022-08-30T09:57:48.280Z,9.77
2022-08-30T10:00:22.619Z,10.57
2022-08-30T10:03:06.147Z,10.32
2022-08-30T10:06:01.720Z,9.85
2022-08-30T10:08:49.875Z,8.82
2022-08-30T10:11:40.117Z,7.90
2022-08-30T10:14:16.099Z,8.45
2022-08-30T10:17:12.364Z,8.15
2022-08-30T10:20:08.627Z,8.52
2022-08-30T10:22:59.658Z,8.48
2022-08-30T10:25:39.421Z,8.20
2022-08-30T10:28:17.818Z,7.53
2022-08-30T10:31:03.106Z,6.28
2022-08-30T10:33:38.257Z,7.85
2022-08-30T10:36:11.648Z,7.80
2022-08-30T10:38:50.597Z,7.07
2022-08-30T10:41:40.438Z,7.68
2022-08-30T10:44:17.598Z,6.95
2022-08-30T10:46:57.723Z,6.82
2022-08-30T10:49:29.035Z,6.85
2022-08-30T10:52:14.865Z,5.93
2022-08-30T10:55:07.229Z,5.37
2022-08-30T11:00:11.730Z,6.50
2022-08-30T11:02:57.338Z,4.43
2022-08-30T11:08:41.922Z,5.47
2022-08-30T11:11:17.312Z,6.03
2022-08-30T11:13:47.059Z,5.15
2022-08-30T11:16:19.497Z,3.97
2022-08-30T11:18:57.403Z,4.95
2022-08-30T11:21:34.118Z,5.28
2022-08-30T11:24:07.797Z,4.78
2022-08-30T11:26:51.076Z,5.93
2022-08-30T11:29:44.918Z,5.15
2022-08-30T11:32:12.813Z,4.95
2022-08-30T11:34:47.220Z,4.55
2022-08-30T11:40:26.619Z,4.78
2022-08-30T11:42:56.287Z,5.10
2022-08-30T11:45:25.435Z,4.60
2022-08-30T11:47:56.218Z,5.93
2022-08-30T11:51:06.559Z,5.70
2022-08-30T11:53:50.239Z,6.15
2022-08-30T11:57:02.400Z,6.72
2022-08-30T12:00:03.199Z,4.57
2022-08-30T12:02:51.202Z,6.75
2022-08-30T12:05:54.139Z,4.82
2022-08-30T12:08:27.892Z,5.65
2022-08-30T12:11:20.068Z,5.78
2022-08-30T12:13:56.354Z,5.10
2022-08-30T12:16:37.354Z,4.95
2022-08-30T12:19:21.776Z,3.60
2022-08-30T12:22:02.138Z,4.87
2022-08-30T12:24:36.999Z,4.93
2022-08-30T12:27:25.279Z,3.72
2022-08-30T12:30:02.322Z,3.75
2022-08-30T12:32:33.657Z,3.90
2022-08-30T12:35:04.383Z,3.90
2022-08-30T12:37:36.677Z,4.25
2022-08-30T12:42:41.616Z,4.53
2022-08-30T12:45:16.219Z,4.80
2022-08-30T12:48:07.058Z,5.03
2022-08-30T12:56:10.959Z,4.85
2022-08-30T12:58:52.035Z,4.60
2022-08-30T13:01:36.201Z,4.20
2022-08-30T13:04:14.757Z,3.87
2022-08-30T13:07:01.510Z,3.92
2022-08-30T13:09:47.929Z,4.45
2022-08-30T13:12:25.905Z,4.20
2022-08-30T13:15:20.364Z,4.00
2022-08-30T13:17:48.537Z,4.68
2022-08-30T13:20:16.988Z,3.70
2022-08-30T13:23:03.249Z,4.12
2022-08-30T13:25:33.076Z,4.12
2022-08-30T13:28:02.867Z,3.83
2022-08-30T13:30:32.285Z,3.70
2022-08-30T13:33:03.418Z,4.28
2022-08-30T13:38:03.015Z,3.83
2022-08-30T13:40:31.396Z,3.75
2022-08-30T13:42:59.618Z,3.65
2022-08-30T13:45:43.424Z,2.75
2022-08-30T13:48:14.583Z,2.80
2022-08-30T13:50:45.479Z,2.55
2022-08-30T13:53:14.265Z,3.33
2022-08-30T13:55:43.063Z,2.60
2022-08-30T13:58:13.368Z,3.60
2022-08-30T14:00:42.316Z,2.60
2022-08-30T14:03:16.533Z,3.05
2022-08-30T14:05:50.535Z,2.67
2022-08-30T14:08:45.335Z,3.90
2022-08-30T14:11:18.735Z,3.93
2022-08-30T14:16:39.736Z,4.97
2022-08-30T14:19:12.579Z,3.97
2022-08-30T14:21:41.246Z,4.40
2022-08-30T14:24:12.066Z,4.60
2022-08-30T14:26:51.689Z,4.20
2022-08-30T14:29:26.385Z,3.65
2022-08-30T14:31:58.567Z,4.40
2022-08-30T14:34:28.823Z,4.85
2022-08-30T14:36:56.948Z,4.70
2022-08-30T14:39:26.380Z,4.70
2022-08-30T14:41:55.768Z,4.18
2022-08-30T14:44:25.721Z,4.03
2022-08-30T14:46:54.819Z,4.30
2022-08-30T14:49:25.507Z,6.43
2022-08-30T14:54:26.418Z,4.57
2022-08-30T14:56:55.575Z,6.03
2022-08-30T14:59:25.176Z,5.50
2022-08-30T15:01:53.958Z,7.40
2022-08-30T15:04:22.802Z,4.90
2022-08-30T15:06:51.453Z,4.70
2022-08-30T15:09:24.619Z,4.80
2022-08-30T15:11:56.778Z,5.12
2022-08-30T15:14:28.102Z,4.20
2022-08-30T15:16:58.679Z,4.40
2022-08-30T15:19:27.180Z,3.92
2022-08-30T15:21:58.485Z,6.55
2022-08-30T15:24:29.762Z,5.68
2022-08-30T15:27:00.459Z,5.40
2022-08-30T15:29:31.735Z,4.80
2022-08-30T15:32:01.960Z,4.20
2022-08-30T15:34:31.968Z,5.15
2022-08-30T15:37:01.037Z,5.70
2022-08-30T15:39:29.647Z,4.35
2022-08-30T15:42:01.256Z,4.70
2022-08-30T15:44:34.477Z,4.72
2022-08-30T15:47:03.597Z,4.87
2022-08-30T15:49:31.767Z,5.65
2022-08-30T15:52:05.277Z,4.18
2022-08-30T15:54:36.461Z,4.30
2022-08-30T15:57:05.907Z,4.85
2022-08-30T15:59:34.108Z,4.43
2022-08-30T16:02:02.731Z,4.30
2022-08-30T16:04:31.900Z,5.00
2022-08-30T16:07:00.139Z,4.32
2022-08-30T16:09:29.935Z,5.00
2022-08-30T16:12:02.901Z,5.00
2022-08-30T16:14:33.318Z,4.40
2022-08-30T16:17:02.439Z,5.40
2022-08-30T16:19:33.439Z,3.95
2022-08-30T16:22:02.261Z,5.00
2022-08-30T16:24:30.454Z,5.10
2022-08-30T16:26:58.657Z,5.53
2022-08-30T16:29:27.140Z,4.12
2022-08-30T16:31:57.792Z,5.37
2022-08-30T16:34:26.559Z,4.00
2022-08-30T16:36:55.133Z,6.00
2022-08-30T16:39:23.340Z,8.02
2022-08-30T16:41:52.631Z,10.32
2022-08-30T16:44:20.743Z,8.32
2022-08-30T16:46:55.298Z,4.78
2022-08-30T16:49:25.548Z,7.80
2022-08-30T16:51:54.312Z,6.53
2022-08-30T16:54:25.080Z,5.90
2022-08-30T16:56:53.556Z,6.90
2022-08-30T16:59:21.843Z,7.90
2022-08-30T17:01:50.087Z,10.77
2022-08-30T17:07:06.754Z,11.05
2022-08-30T17:09:42.236Z,9.57
2022-08-30T17:12:10.293Z,9.95
2022-08-30T17:14:38.375Z,9.88
2022-08-30T17:17:07.466Z,9.73
2022-08-30T17:19:40.966Z,8.85
2022-08-30T17:22:10.738Z,9.45
2022-08-30T17:24:40.258Z,8.70
2022-08-30T17:27:08.550Z,9.40
2022-08-30T17:29:37.106Z,10.38
2022-08-30T17:32:06.868Z,10.88
2022-08-30T17:34:34.962Z,8.00
2022-08-30T17:37:03.642Z,10.73
2022-08-30T17:39:31.933Z,10.23
2022-08-30T17:42:00.844Z,11.23
2022-08-30T17:44:31.932Z,12.13
2022-08-30T17:47:00.495Z,10.25
2022-08-30T17:49:31.019Z,10.30
2022-08-30T17:54:45.948Z,10.80
2022-08-30T17:57:13.936Z,9.93
2022-08-30T17:59:43.547Z,10.07
2022-08-30T18:02:13.718Z,9.38
2022-08-30T18:04:42.638Z,9.32
2022-08-30T18:07:12.915Z,10.02
2022-08-30T18:09:41.726Z,7.87
2022-08-30T18:12:12.348Z,10.05
2022-08-30T18:14:42.239Z,9.32
2022-08-30T18:17:10.706Z,10.68
2022-08-30T18:19:45.851Z,10.63
2022-08-30T18:22:16.660Z,10.05
2022-08-30T18:24:45.967Z,10.93
2022-08-30T18:27:15.858Z,12.07
2022-08-30T18:29:43.971Z,11.05
2022-08-30T18:32:12.875Z,11.73
2022-08-30T18:34:43.126Z,11.55
2022-08-30T18:37:12.418Z,10.52
2022-08-30T18:39:41.971Z,11.55
2022-08-30T18:42:10.608Z,10.50
2022-08-30T18:44:40.198Z,11.50
2022-08-30T18:47:12.048Z,10.52
2022-08-30T18:49:40.280Z,10.38
2022-08-30T18:52:10.199Z,9.77
2022-08-30T18:54:49.748Z,10.55
2022-08-30T18:57:22.075Z,10.07
2022-08-30T18:59:51.228Z,10.05
2022-08-30T19:02:19.654Z,11.25
2022-08-30T19:04:49.353Z,8.75
2022-08-30T19:07:19.849Z,11.30
2022-08-30T19:09:49.239Z,9.02
2022-08-30T19:12:19.758Z,10.48
2022-08-30T19:14:49.199Z,12.02
2022-08-30T19:17:17.459Z,8.43
2022-08-30T19:19:49.340Z,12.25
2022-08-30T19:22:22.610Z,11.55
2022-08-30T19:24:54.986Z,12.37
2022-08-30T19:30:21.574Z,11.25
2022-08-30T19:32:52.219Z,9.15
2022-08-30T19:35:21.676Z,10.07
2022-08-30T19:37:49.921Z,10.80
2022-08-30T19:40:20.214Z,11.57
2022-08-30T19:42:52.107Z,10.80
2022-08-30T19:45:21.974Z,10.90
2022-08-30T19:47:53.556Z,11.80
2022-08-30T19:50:22.529Z,10.57
2022-08-30T19:55:40.658Z,9.20
2022-08-30T19:58:10.289Z,9.43
2022-08-30T20:00:39.246Z,9.13
2022-08-30T20:03:14.149Z,7.97
2022-08-30T20:05:44.097Z,10.93
2022-08-30T20:08:12.314Z,9.70
2022-08-30T20:10:44.074Z,10.07
2022-08-30T20:13:12.165Z,9.30
2022-08-30T20:15:40.815Z,9.18
2022-08-30T20:18:14.203Z,9.40
2022-08-30T20:20:49.380Z,8.95
2022-08-30T20:23:22.631Z,8.25
2022-08-30T20:24:23.934Z,12.40
2022-08-30T20:25:53.647Z,9.20
2022-08-30T20:28:22.628Z,8.20
2022-08-30T20:30:50.764Z,10.20
2022-08-30T20:33:21.557Z,9.55
2022-08-30T20:35:50.313Z,8.73
2022-08-30T20:38:24.199Z,9.25
2022-08-30T20:40:56.395Z,8.02
2022-08-30T20:43:27.776Z,8.90
2022-08-30T20:45:56.798Z,7.78
2022-08-30T20:48:29.148Z,9.18
2022-08-30T20:50:58.108Z,8.90
2022-08-30T20:53:26.374Z,7.60
2022-08-30T20:55:54.606Z,8.35
2022-08-30T20:58:23.267Z,9.32
2022-08-30T21:00:55.112Z,9.98
2022-08-30T21:03:25.910Z,9.38
2022-08-30T21:05:56.194Z,9.47
2022-08-30T21:08:25.547Z,9.05
2022-08-30T21:10:54.936Z,9.10
2022-08-30T21:13:23.346Z,9.55
2022-08-30T21:16:00.417Z,6.78
2022-08-30T21:18:33.420Z,7.30
2022-08-30T21:21:14.261Z,8.70
2022-08-30T21:23:43.392Z,9.43
2022-08-30T21:26:12.134Z,8.38
2022-08-30T21:28:40.635Z,8.60
2022-08-30T21:31:11.979Z,8.98
2022-08-30T21:33:41.450Z,8.20
2022-08-30T21:36:30.307Z,6.07
2022-08-30T21:39:00.917Z,7.12
2022-08-30T21:41:30.905Z,5.93
2022-08-30T21:44:05.739Z,8.00
2022-08-30T21:46:35.477Z,7.40
2022-08-30T21:49:07.238Z,8.48
2022-08-30T21:51:39.599Z,8.63
2022-08-30T21:56:40.884Z,8.15
2022-08-30T21:59:10.710Z,8.25
2022-08-30T22:01:40.703Z,8.07
2022-08-30T22:04:11.126Z,7.37
2022-08-30T22:06:43.821Z,7.32
2022-08-30T22:09:16.108Z,7.43
2022-08-30T22:11:44.981Z,7.20
2022-08-30T22:14:14.811Z,7.68
2022-08-30T22:16:45.056Z,9.23
2022-08-30T22:19:13.773Z,7.28
2022-08-30T22:21:42.998Z,7.50
2022-08-30T22:24:12.345Z,7.78
2022-08-30T22:26:41.231Z,8.02
2022-08-30T22:29:09.891Z,8.52
2022-08-30T22:31:41.594Z,8.48
2022-08-30T22:34:10.781Z,8.45
2022-08-30T22:36:40.956Z,6.87
2022-08-30T22:39:12.380Z,7.05
2022-08-30T22:41:41.781Z,7.62
2022-08-30T22:44:09.709Z,7.90
2022-08-30T22:46:39.063Z,8.45
2022-08-30T22:49:09.722Z,8.07
2022-08-30T22:51:41.882Z,8.52
2022-08-30T22:57:03.634Z,7.03
2022-08-30T22:59:32.816Z,8.23
2022-08-30T23:02:01.274Z,7.95
2022-08-30T23:04:29.916Z,7.50
2022-08-30T23:06:57.914Z,6.12
2022-08-30T23:09:25.899Z,7.18
2022-08-30T23:11:54.254Z,7.55
2022-08-30T23:14:22.722Z,8.05
2022-08-30T23:16:53.414Z,8.68
2022-08-30T23:19:24.010Z,8.25
2022-08-30T23:21:51.941Z,7.60
2022-08-30T23:24:38.123Z,7.62
2022-08-30T23:27:24.900Z,7.68
2022-08-30T23:30:11.162Z,7.60
2022-08-30T23:32:57.961Z,8.30
2022-08-30T23:35:44.952Z,7.70
2022-08-30T23:38:31.927Z,7.62
2022-08-30T23:41:18.291Z,7.40
2022-08-30T23:44:05.206Z,6.07
2022-08-30T23:46:51.391Z,5.18
2022-08-30T23:49:38.232Z,7.28
2022-08-30T23:52:25.234Z,7.50
2022-08-30T23:55:12.207Z,7.43
2022-08-30T23:57:58.436Z,7.12
